KCNK/CNK METAR and TAF weather

Enter ICAO airport designator
Station Type Date Time Source
KCNK METAR 2019/04/26 02:55 UTC NOAA

KCNK 260255Z AUTO 32006KT 10SM CLR 15/02 A3007 RMK AO2 SLP177 T01500017 53021


Station Type Date Time Source
KCNK Decoded METAR 2019/04/26 02:55 UTC NOAA

Concordia, Blosser Municipal Airport, KS, United States (KCNK) 39-33-05N 097-39-02W 447M
Apr 25, 2019 - 10:55 PM EDT / 2019.04.26 0255 UTC
Wind: from the NW (320 degrees) at 7 MPH (6 KT):0
Visibility: 10 mile(s):0
Sky conditions: clear
Temperature: 59.0 F (15.0 C)
Dew Point: 35.1 F (1.7 C)
Relative Humidity: 40%
Pressure (altimeter): 30.07 in. Hg (1018 hPa)
Pressure tendency: 0.06 inches (2.1 hPa) higher than three hours ago
ob: KCNK 260255Z AUTO 32006KT 10SM CLR 15/02 A3007 RMK AO2 SLP177 T01500017 53021
cycle: 3

Station Type Date Time Source
KCNK TAF UTC NOAA

Error!

Example: see airport list